sensor_id;sensor_type;location;lat;lon;timestamp;P1;durP1;ratioP1;P2;durP2;ratioP2
66597;SDS011;57424;53.128;6.406;2022-11-12T00:00:25;5.35;;;4.18;;
66597;SDS011;57424;53.128;6.406;2022-11-12T00:02:51;7.22;;;4.53;;
66597;SDS011;57424;53.128;6.406;2022-11-12T00:05:16;4.95;;;4.43;;
66597;SDS011;57424;53.128;6.406;2022-11-12T00:07:42;4.53;;;4.07;;
66597;SDS011;57424;53.128;6.406;2022-11-12T00:10:08;4.57;;;4.13;;
66597;SDS011;57424;53.128;6.406;2022-11-12T00:12:33;6.28;;;4.28;;
66597;SDS011;57424;53.128;6.406;2022-11-12T00:14:59;5.40;;;4.70;;
66597;SDS011;57424;53.128;6.406;2022-11-12T00:17:24;6.47;;;4.40;;
66597;SDS011;57424;53.128;6.406;2022-11-12T00:19:50;10.85;;;4.47;;
66597;SDS011;57424;53.128;6.406;2022-11-12T00:22:16;6.03;;;4.60;;
66597;SDS011;57424;53.128;6.406;2022-11-12T00:24:41;8.20;;;4.40;;
66597;SDS011;57424;53.128;6.406;2022-11-12T00:27:07;4.72;;;4.00;;
66597;SDS011;57424;53.128;6.406;2022-11-12T00:29:32;4.80;;;4.30;;
66597;SDS011;57424;53.128;6.406;2022-11-12T00:31:58;4.63;;;4.15;;
66597;SDS011;57424;53.128;6.406;2022-11-12T00:34:23;4.47;;;4.07;;
66597;SDS011;57424;53.128;6.406;2022-11-12T00:36:49;5.50;;;4.50;;
66597;SDS011;57424;53.128;6.406;2022-11-12T00:39:14;4.68;;;4.03;;
66597;SDS011;57424;53.128;6.406;2022-11-12T00:41:40;4.97;;;3.95;;
66597;SDS011;57424;53.128;6.406;2022-11-12T00:44:05;4.80;;;4.30;;
66597;SDS011;57424;53.128;6.406;2022-11-12T00:46:31;6.57;;;4.68;;
66597;SDS011;57424;53.128;6.406;2022-11-12T00:48:56;5.60;;;3.80;;
66597;SDS011;57424;53.128;6.406;2022-11-12T00:51:22;4.53;;;3.95;;
66597;SDS011;57424;53.128;6.406;2022-11-12T00:53:48;4.82;;;4.32;;
66597;SDS011;57424;53.128;6.406;2022-11-12T00:56:14;4.80;;;4.20;;
66597;SDS011;57424;53.128;6.406;2022-11-12T00:58:40;4.30;;;3.90;;
66597;SDS011;57424;53.128;6.406;2022-11-12T01:01:09;4.78;;;3.53;;
66597;SDS011;57424;53.128;6.406;2022-11-12T01:03:36;6.97;;;4.70;;
66597;SDS011;57424;53.128;6.406;2022-11-12T01:06:37;5.18;;;3.90;;
66597;SDS011;57424;53.128;6.406;2022-11-12T01:08:54;5.43;;;3.90;;
66597;SDS011;57424;53.128;6.406;2022-11-12T01:11:21;4.38;;;3.80;;
66597;SDS011;57424;53.128;6.406;2022-11-12T01:13:51;5.95;;;4.30;;
66597;SDS011;57424;53.128;6.406;2022-11-12T01:16:20;6.25;;;4.05;;
66597;SDS011;57424;53.128;6.406;2022-11-12T01:18:50;5.35;;;4.05;;
66597;SDS011;57424;53.128;6.406;2022-11-12T01:21:17;4.80;;;4.10;;
66597;SDS011;57424;53.128;6.406;2022-11-12T01:23:43;4.93;;;4.40;;
66597;SDS011;57424;53.128;6.406;2022-11-12T01:26:10;4.03;;;3.60;;
66597;SDS011;57424;53.128;6.406;2022-11-12T01:28:37;4.50;;;3.90;;
66597;SDS011;57424;53.128;6.406;2022-11-12T01:31:10;4.97;;;3.85;;
66597;SDS011;57424;53.128;6.406;2022-11-12T01:33:39;5.07;;;4.20;;
66597;SDS011;57424;53.128;6.406;2022-11-12T01:36:06;4.05;;;3.30;;
66597;SDS011;57424;53.128;6.406;2022-11-12T01:38:33;4.28;;;3.47;;
66597;SDS011;57424;53.128;6.406;2022-11-12T01:41:00;4.60;;;3.92;;
66597;SDS011;57424;53.128;6.406;2022-11-12T01:43:25;5.72;;;4.45;;
66597;SDS011;57424;53.128;6.406;2022-11-12T01:45:51;4.78;;;3.75;;
66597;SDS011;57424;53.128;6.406;2022-11-12T01:48:25;4.22;;;3.83;;
66597;SDS011;57424;53.128;6.406;2022-11-12T01:50:56;4.75;;;4.20;;
66597;SDS011;57424;53.128;6.406;2022-11-12T01:53:22;5.10;;;3.65;;
66597;SDS011;57424;53.128;6.406;2022-11-12T01:55:52;5.57;;;4.07;;
66597;SDS011;57424;53.128;6.406;2022-11-12T01:58:20;4.87;;;4.30;;
66597;SDS011;57424;53.128;6.406;2022-11-12T02:00:48;4.95;;;4.20;;
66597;SDS011;57424;53.128;6.406;2022-11-12T02:03:16;4.10;;;3.67;;
66597;SDS011;57424;53.128;6.406;2022-11-12T02:05:45;4.78;;;3.70;;
66597;SDS011;57424;53.128;6.406;2022-11-12T02:08:15;4.35;;;3.95;;
66597;SDS011;57424;53.128;6.406;2022-11-12T02:10:41;4.45;;;3.83;;
66597;SDS011;57424;53.128;6.406;2022-11-12T02:13:06;4.32;;;3.63;;
66597;SDS011;57424;53.128;6.406;2022-11-12T02:15:51;5.03;;;3.80;;
66597;SDS011;57424;53.128;6.406;2022-11-12T02:18:17;4.88;;;4.38;;
66597;SDS011;57424;53.128;6.406;2022-11-12T02:20:42;4.53;;;3.83;;
66597;SDS011;57424;53.128;6.406;2022-11-12T02:23:08;3.80;;;3.40;;
66597;SDS011;57424;53.128;6.406;2022-11-12T02:25:34;4.45;;;3.55;;
66597;SDS011;57424;53.128;6.406;2022-11-12T02:28:01;4.40;;;3.90;;
66597;SDS011;57424;53.128;6.406;2022-11-12T02:32:59;4.07;;;3.47;;
66597;SDS011;57424;53.128;6.406;2022-11-12T02:35:24;4.78;;;3.83;;
66597;SDS011;57424;53.128;6.406;2022-11-12T02:37:50;4.80;;;4.20;;
66597;SDS011;57424;53.128;6.406;2022-11-12T02:40:15;3.85;;;3.42;;
66597;SDS011;57424;53.128;6.406;2022-11-12T02:42:41;4.60;;;3.58;;
66597;SDS011;57424;53.128;6.406;2022-11-12T02:45:07;4.60;;;4.20;;
66597;SDS011;57424;53.128;6.406;2022-11-12T02:47:33;4.72;;;4.15;;
66597;SDS011;57424;53.128;6.406;2022-11-12T02:49:59;5.00;;;3.58;;
66597;SDS011;57424;53.128;6.406;2022-11-12T02:52:26;4.57;;;3.80;;
66597;SDS011;57424;53.128;6.406;2022-11-12T02:54:53;4.17;;;3.77;;
66597;SDS011;57424;53.128;6.406;2022-11-12T02:57:20;4.57;;;3.72;;
66597;SDS011;57424;53.128;6.406;2022-11-12T02:59:47;4.07;;;3.47;;
66597;SDS011;57424;53.128;6.406;2022-11-12T03:02:14;4.20;;;3.67;;
66597;SDS011;57424;53.128;6.406;2022-11-12T03:04:41;4.57;;;3.90;;
66597;SDS011;57424;53.128;6.406;2022-11-12T03:07:08;5.30;;;4.18;;
66597;SDS011;57424;53.128;6.406;2022-11-12T03:09:35;4.32;;;3.55;;
66597;SDS011;57424;53.128;6.406;2022-11-12T03:12:02;4.53;;;3.70;;
66597;SDS011;57424;53.128;6.406;2022-11-12T03:14:29;4.47;;;3.65;;
66597;SDS011;57424;53.128;6.406;2022-11-12T03:16:56;4.70;;;4.20;;
66597;SDS011;57424;53.128;6.406;2022-11-12T03:19:23;5.03;;;4.53;;
66597;SDS011;57424;53.128;6.406;2022-11-12T03:21:49;4.47;;;3.40;;
66597;SDS011;57424;53.128;6.406;2022-11-12T03:24:16;4.22;;;3.80;;
66597;SDS011;57424;53.128;6.406;2022-11-12T03:26:43;4.30;;;3.90;;
66597;SDS011;57424;53.128;6.406;2022-11-12T03:29:10;4.63;;;3.87;;
66597;SDS011;57424;53.128;6.406;2022-11-12T03:31:37;5.25;;;3.67;;
66597;SDS011;57424;53.128;6.406;2022-11-12T03:34:04;5.47;;;3.77;;
66597;SDS011;57424;53.128;6.406;2022-11-12T03:36:31;6.25;;;3.45;;
66597;SDS011;57424;53.128;6.406;2022-11-12T03:38:58;4.10;;;3.50;;
66597;SDS011;57424;53.128;6.406;2022-11-12T03:41:25;4.30;;;3.88;;
66597;SDS011;57424;53.128;6.406;2022-11-12T03:43:51;4.15;;;3.53;;
66597;SDS011;57424;53.128;6.406;2022-11-12T03:46:17;4.53;;;3.78;;
66597;SDS011;57424;53.128;6.406;2022-11-12T03:48:42;4.28;;;3.78;;
66597;SDS011;57424;53.128;6.406;2022-11-12T03:51:08;4.88;;;3.83;;
66597;SDS011;57424;53.128;6.406;2022-11-12T03:53:36;3.60;;;3.30;;
66597;SDS011;57424;53.128;6.406;2022-11-12T03:56:01;4.90;;;4.00;;
66597;SDS011;57424;53.128;6.406;2022-11-12T03:58:27;4.55;;;3.78;;
66597;SDS011;57424;53.128;6.406;2022-11-12T04:00:52;3.97;;;3.45;;
66597;SDS011;57424;53.128;6.406;2022-11-12T04:03:18;4.97;;;3.72;;
66597;SDS011;57424;53.128;6.406;2022-11-12T04:05:43;3.92;;;3.30;;
66597;SDS011;57424;53.128;6.406;2022-11-12T04:08:27;4.32;;;3.83;;
66597;SDS011;57424;53.128;6.406;2022-11-12T04:11:03;3.97;;;3.38;;
66597;SDS011;57424;53.128;6.406;2022-11-12T04:13:32;3.78;;;3.13;;
66597;SDS011;57424;53.128;6.406;2022-11-12T04:15:59;3.90;;;3.53;;
66597;SDS011;57424;53.128;6.406;2022-11-12T04:18:45;3.67;;;3.35;;
66597;SDS011;57424;53.128;6.406;2022-11-12T04:24:34;4.28;;;3.60;;
66597;SDS011;57424;53.128;6.406;2022-11-12T04:27:21;4.35;;;3.70;;
66597;SDS011;57424;53.128;6.406;2022-11-12T04:29:48;3.80;;;3.40;;
66597;SDS011;57424;53.128;6.406;2022-11-12T04:32:34;4.78;;;3.20;;
66597;SDS011;57424;53.128;6.406;2022-11-12T04:35:02;3.40;;;3.10;;
66597;SDS011;57424;53.128;6.406;2022-11-12T04:37:29;5.03;;;3.63;;
66597;SDS011;57424;53.128;6.406;2022-11-12T04:40:09;4.68;;;3.60;;
66597;SDS011;57424;53.128;6.406;2022-11-12T04:43:11;4.20;;;3.25;;
66597;SDS011;57424;53.128;6.406;2022-11-12T04:45:56;3.25;;;2.95;;
66597;SDS011;57424;53.128;6.406;2022-11-12T04:48:24;4.65;;;3.67;;
66597;SDS011;57424;53.128;6.406;2022-11-12T04:51:00;4.50;;;3.72;;
66597;SDS011;57424;53.128;6.406;2022-11-12T04:53:27;4.15;;;3.30;;
66597;SDS011;57424;53.128;6.406;2022-11-12T04:55:55;5.68;;;2.92;;
66597;SDS011;57424;53.128;6.406;2022-11-12T05:00:48;4.50;;;3.70;;
66597;SDS011;57424;53.128;6.406;2022-11-12T05:03:14;4.03;;;3.40;;
66597;SDS011;57424;53.128;6.406;2022-11-12T05:05:40;3.92;;;3.53;;
66597;SDS011;57424;53.128;6.406;2022-11-12T05:08:06;3.55;;;3.25;;
66597;SDS011;57424;53.128;6.406;2022-11-12T05:10:31;4.30;;;3.47;;
66597;SDS011;57424;53.128;6.406;2022-11-12T05:12:57;4.03;;;3.22;;
66597;SDS011;57424;53.128;6.406;2022-11-12T05:15:23;3.45;;;3.15;;
66597;SDS011;57424;53.128;6.406;2022-11-12T05:17:48;3.67;;;3.38;;
66597;SDS011;57424;53.128;6.406;2022-11-12T05:20:14;3.97;;;3.58;;
66597;SDS011;57424;53.128;6.406;2022-11-12T05:22:40;3.40;;;3.10;;
66597;SDS011;57424;53.128;6.406;2022-11-12T05:25:06;3.65;;;3.28;;
66597;SDS011;57424;53.128;6.406;2022-11-12T05:27:33;4.10;;;3.50;;
66597;SDS011;57424;53.128;6.406;2022-11-12T05:29:59;4.38;;;3.38;;
66597;SDS011;57424;53.128;6.406;2022-11-12T05:32:25;3.40;;;2.95;;
66597;SDS011;57424;53.128;6.406;2022-11-12T05:34:51;3.95;;;3.28;;
66597;SDS011;57424;53.128;6.406;2022-11-12T05:37:17;4.20;;;3.28;;
66597;SDS011;57424;53.128;6.406;2022-11-12T05:39:45;4.25;;;3.33;;
66597;SDS011;57424;53.128;6.406;2022-11-12T05:42:10;4.15;;;3.42;;
66597;SDS011;57424;53.128;6.406;2022-11-12T05:44:36;4.38;;;3.83;;
66597;SDS011;57424;53.128;6.406;2022-11-12T05:47:02;3.45;;;2.92;;
66597;SDS011;57424;53.128;6.406;2022-11-12T05:49:27;3.40;;;3.10;;
66597;SDS011;57424;53.128;6.406;2022-11-12T05:51:53;4.53;;;3.50;;
66597;SDS011;57424;53.128;6.406;2022-11-12T05:54:19;3.53;;;3.22;;
66597;SDS011;57424;53.128;6.406;2022-11-12T05:56:45;3.58;;;3.10;;
66597;SDS011;57424;53.128;6.406;2022-11-12T05:59:11;4.15;;;3.75;;
66597;SDS011;57424;53.128;6.406;2022-11-12T06:01:38;3.80;;;3.50;;
66597;SDS011;57424;53.128;6.406;2022-11-12T06:04:11;4.18;;;3.50;;
66597;SDS011;57424;53.128;6.406;2022-11-12T06:06:42;4.03;;;3.58;;
66597;SDS011;57424;53.128;6.406;2022-11-12T06:09:08;3.80;;;3.45;;
66597;SDS011;57424;53.128;6.406;2022-11-12T06:11:34;4.28;;;3.33;;
66597;SDS011;57424;53.128;6.406;2022-11-12T06:14:00;4.07;;;3.40;;
66597;SDS011;57424;53.128;6.406;2022-11-12T06:16:27;4.90;;;3.85;;
66597;SDS011;57424;53.128;6.406;2022-11-12T06:18:53;3.20;;;2.90;;
66597;SDS011;57424;53.128;6.406;2022-11-12T06:21:18;4.22;;;3.58;;
66597;SDS011;57424;53.128;6.406;2022-11-12T06:23:45;4.18;;;3.22;;
66597;SDS011;57424;53.128;6.406;2022-11-12T06:26:12;3.90;;;3.50;;
66597;SDS011;57424;53.128;6.406;2022-11-12T06:28:37;3.92;;;3.30;;
66597;SDS011;57424;53.128;6.406;2022-11-12T06:31:03;3.88;;;3.35;;
66597;SDS011;57424;53.128;6.406;2022-11-12T06:33:29;3.65;;;3.35;;
66597;SDS011;57424;53.128;6.406;2022-11-12T06:35:55;3.75;;;3.38;;
66597;SDS011;57424;53.128;6.406;2022-11-12T06:38:27;3.70;;;3.00;;
66597;SDS011;57424;53.128;6.406;2022-11-12T06:40:54;5.80;;;3.25;;
66597;SDS011;57424;53.128;6.406;2022-11-12T06:43:19;4.78;;;3.30;;
66597;SDS011;57424;53.128;6.406;2022-11-12T06:45:45;4.03;;;3.50;;
66597;SDS011;57424;53.128;6.406;2022-11-12T06:48:10;3.97;;;3.35;;
66597;SDS011;57424;53.128;6.406;2022-11-12T06:50:36;3.55;;;3.10;;
66597;SDS011;57424;53.128;6.406;2022-11-12T06:53:01;4.03;;;3.63;;
66597;SDS011;57424;53.128;6.406;2022-11-12T06:55:27;3.72;;;3.33;;
66597;SDS011;57424;53.128;6.406;2022-11-12T06:57:52;3.80;;;3.40;;
66597;SDS011;57424;53.128;6.406;2022-11-12T07:00:18;4.50;;;3.60;;
66597;SDS011;57424;53.128;6.406;2022-11-12T07:02:44;3.60;;;3.30;;
66597;SDS011;57424;53.128;6.406;2022-11-12T07:05:10;3.83;;;3.50;;
66597;SDS011;57424;53.128;6.406;2022-11-12T07:07:35;4.50;;;3.72;;
66597;SDS011;57424;53.128;6.406;2022-11-12T07:10:01;3.97;;;3.40;;
66597;SDS011;57424;53.128;6.406;2022-11-12T07:12:26;3.83;;;3.33;;
66597;SDS011;57424;53.128;6.406;2022-11-12T07:14:52;4.13;;;3.47;;
66597;SDS011;57424;53.128;6.406;2022-11-12T07:17:18;3.97;;;3.47;;
66597;SDS011;57424;53.128;6.406;2022-11-12T07:19:43;3.70;;;3.20;;
66597;SDS011;57424;53.128;6.406;2022-11-12T07:22:09;4.07;;;3.47;;
66597;SDS011;57424;53.128;6.406;2022-11-12T07:24:34;4.38;;;3.50;;
66597;SDS011;57424;53.128;6.406;2022-11-12T07:27:00;4.57;;;3.72;;
66597;SDS011;57424;53.128;6.406;2022-11-12T07:29:25;4.68;;;3.63;;
66597;SDS011;57424;53.128;6.406;2022-11-12T07:31:51;5.13;;;3.60;;
66597;SDS011;57424;53.128;6.406;2022-11-12T07:34:16;3.90;;;3.30;;
66597;SDS011;57424;53.128;6.406;2022-11-12T07:36:42;3.72;;;3.33;;
66597;SDS011;57424;53.128;6.406;2022-11-12T07:39:07;4.63;;;3.30;;
66597;SDS011;57424;53.128;6.406;2022-11-12T07:41:34;3.85;;;3.35;;
66597;SDS011;57424;53.128;6.406;2022-11-12T07:44:00;4.47;;;4.07;;
66597;SDS011;57424;53.128;6.406;2022-11-12T07:46:27;4.27;;;3.53;;
66597;SDS011;57424;53.128;6.406;2022-11-12T07:48:54;4.10;;;3.60;;
66597;SDS011;57424;53.128;6.406;2022-11-12T07:51:24;3.72;;;3.35;;
66597;SDS011;57424;53.128;6.406;2022-11-12T07:53:51;4.22;;;3.63;;
66597;SDS011;57424;53.128;6.406;2022-11-12T07:56:19;8.63;;;3.95;;
66597;SDS011;57424;53.128;6.406;2022-11-12T07:58:46;5.07;;;3.70;;
66597;SDS011;57424;53.128;6.406;2022-11-12T08:03:49;4.27;;;3.67;;
66597;SDS011;57424;53.128;6.406;2022-11-12T08:06:15;5.45;;;3.78;;
66597;SDS011;57424;53.128;6.406;2022-11-12T08:08:40;4.88;;;3.70;;
66597;SDS011;57424;53.128;6.406;2022-11-12T08:11:06;4.10;;;3.40;;
66597;SDS011;57424;53.128;6.406;2022-11-12T08:13:32;4.13;;;3.50;;
66597;SDS011;57424;53.128;6.406;2022-11-12T08:15:58;5.90;;;3.60;;
66597;SDS011;57424;53.128;6.406;2022-11-12T08:18:24;5.45;;;3.60;;
66597;SDS011;57424;53.128;6.406;2022-11-12T08:20:50;4.65;;;3.83;;
66597;SDS011;57424;53.128;6.406;2022-11-12T08:23:16;5.35;;;4.00;;
66597;SDS011;57424;53.128;6.406;2022-11-12T08:25:41;4.68;;;3.90;;
66597;SDS011;57424;53.128;6.406;2022-11-12T08:28:07;4.78;;;3.90;;
66597;SDS011;57424;53.128;6.406;2022-11-12T08:30:33;6.22;;;3.67;;
66597;SDS011;57424;53.128;6.406;2022-11-12T08:33:00;5.93;;;3.95;;
66597;SDS011;57424;53.128;6.406;2022-11-12T08:35:28;5.40;;;3.75;;
66597;SDS011;57424;53.128;6.406;2022-11-12T08:37:58;7.45;;;4.60;;
66597;SDS011;57424;53.128;6.406;2022-11-12T08:40:25;8.23;;;4.32;;
66597;SDS011;57424;53.128;6.406;2022-11-12T08:42:56;4.70;;;3.90;;
66597;SDS011;57424;53.128;6.406;2022-11-12T08:45:22;6.68;;;4.53;;
66597;SDS011;57424;53.128;6.406;2022-11-12T08:47:47;7.53;;;4.20;;
66597;SDS011;57424;53.128;6.406;2022-11-12T08:50:13;5.75;;;3.88;;
66597;SDS011;57424;53.128;6.406;2022-11-12T08:52:38;7.65;;;4.07;;
66597;SDS011;57424;53.128;6.406;2022-11-12T08:55:04;5.63;;;4.35;;
66597;SDS011;57424;53.128;6.406;2022-11-12T08:57:30;6.63;;;4.30;;
66597;SDS011;57424;53.128;6.406;2022-11-12T08:59:56;6.35;;;4.35;;
66597;SDS011;57424;53.128;6.406;2022-11-12T09:02:21;6.57;;;4.50;;
66597;SDS011;57424;53.128;6.406;2022-11-12T09:04:47;5.32;;;4.10;;
66597;SDS011;57424;53.128;6.406;2022-11-12T09:07:12;7.80;;;4.80;;
66597;SDS011;57424;53.128;6.406;2022-11-12T09:09:38;6.78;;;3.90;;
66597;SDS011;57424;53.128;6.406;2022-11-12T09:12:03;5.78;;;4.38;;
66597;SDS011;57424;53.128;6.406;2022-11-12T09:14:29;6.45;;;4.40;;
66597;SDS011;57424;53.128;6.406;2022-11-12T09:16:55;6.13;;;4.60;;
66597;SDS011;57424;53.128;6.406;2022-11-12T09:19:20;5.25;;;3.90;;
66597;SDS011;57424;53.128;6.406;2022-11-12T09:21:46;6.15;;;4.40;;
66597;SDS011;57424;53.128;6.406;2022-11-12T09:24:11;5.72;;;4.65;;
66597;SDS011;57424;53.128;6.406;2022-11-12T09:26:37;5.80;;;4.65;;
66597;SDS011;57424;53.128;6.406;2022-11-12T09:29:02;6.03;;;4.25;;
66597;SDS011;57424;53.128;6.406;2022-11-12T09:31:28;6.93;;;4.72;;
66597;SDS011;57424;53.128;6.406;2022-11-12T09:33:53;6.65;;;4.60;;
66597;SDS011;57424;53.128;6.406;2022-11-12T09:36:19;5.22;;;4.30;;
66597;SDS011;57424;53.128;6.406;2022-11-12T09:38:44;6.15;;;4.80;;
66597;SDS011;57424;53.128;6.406;2022-11-12T09:41:13;5.50;;;4.10;;
66597;SDS011;57424;53.128;6.406;2022-11-12T09:43:49;6.72;;;4.63;;
66597;SDS011;57424;53.128;6.406;2022-11-12T09:46:37;6.28;;;4.88;;
66597;SDS011;57424;53.128;6.406;2022-11-12T09:49:21;6.78;;;4.50;;
66597;SDS011;57424;53.128;6.406;2022-11-12T09:51:50;5.57;;;4.32;;
66597;SDS011;57424;53.128;6.406;2022-11-12T09:55:04;7.63;;;4.95;;
66597;SDS011;57424;53.128;6.406;2022-11-12T09:57:37;6.28;;;4.68;;
66597;SDS011;57424;53.128;6.406;2022-11-12T10:00:08;5.57;;;4.57;;
66597;SDS011;57424;53.128;6.406;2022-11-12T10:02:42;6.03;;;4.70;;
66597;SDS011;57424;53.128;6.406;2022-11-12T10:07:55;6.45;;;5.00;;
66597;SDS011;57424;53.128;6.406;2022-11-12T10:13:12;6.60;;;5.28;;
66597;SDS011;57424;53.128;6.406;2022-11-12T10:16:01;5.43;;;4.47;;
66597;SDS011;57424;53.128;6.406;2022-11-12T10:21:41;6.93;;;5.25;;
66597;SDS011;57424;53.128;6.406;2022-11-12T10:24:18;6.60;;;5.00;;
66597;SDS011;57424;53.128;6.406;2022-11-12T10:26:46;5.88;;;4.65;;
66597;SDS011;57424;53.128;6.406;2022-11-12T10:32:03;6.65;;;5.20;;
66597;SDS011;57424;53.128;6.406;2022-11-12T10:34:28;6.72;;;5.50;;
66597;SDS011;57424;53.128;6.406;2022-11-12T10:39:42;6.10;;;5.10;;
66597;SDS011;57424;53.128;6.406;2022-11-12T10:42:18;7.30;;;5.63;;
66597;SDS011;57424;53.128;6.406;2022-11-12T10:44:46;6.00;;;4.68;;
66597;SDS011;57424;53.128;6.406;2022-11-12T10:52:53;6.85;;;5.53;;
66597;SDS011;57424;53.128;6.406;2022-11-12T10:55:29;6.15;;;5.15;;
66597;SDS011;57424;53.128;6.406;2022-11-12T11:00:37;7.05;;;5.05;;
66597;SDS011;57424;53.128;6.406;2022-11-12T11:03:18;5.85;;;4.90;;
66597;SDS011;57424;53.128;6.406;2022-11-12T11:05:51;6.03;;;5.00;;
66597;SDS011;57424;53.128;6.406;2022-11-12T11:08:30;6.88;;;5.25;;
66597;SDS011;57424;53.128;6.406;2022-11-12T11:11:17;6.38;;;4.82;;
66597;SDS011;57424;53.128;6.406;2022-11-12T11:13:44;5.97;;;5.13;;
66597;SDS011;57424;53.128;6.406;2022-11-12T11:16:12;6.97;;;4.68;;
66597;SDS011;57424;53.128;6.406;2022-11-12T11:18:40;5.88;;;4.65;;
66597;SDS011;57424;53.128;6.406;2022-11-12T11:23:39;6.68;;;5.00;;
66597;SDS011;57424;53.128;6.406;2022-11-12T11:26:14;6.22;;;5.50;;
66597;SDS011;57424;53.128;6.406;2022-11-12T11:28:45;6.65;;;5.40;;
66597;SDS011;57424;53.128;6.406;2022-11-12T11:33:43;6.30;;;5.10;;
66597;SDS011;57424;53.128;6.406;2022-11-12T11:36:20;6.82;;;5.78;;
66597;SDS011;57424;53.128;6.406;2022-11-12T11:39:05;6.78;;;5.30;;
66597;SDS011;57424;53.128;6.406;2022-11-12T11:41:42;6.68;;;5.95;;
66597;SDS011;57424;53.128;6.406;2022-11-12T11:49:26;5.55;;;4.85;;
66597;SDS011;57424;53.128;6.406;2022-11-12T11:52:06;5.72;;;4.95;;
66597;SDS011;57424;53.128;6.406;2022-11-12T11:58:10;6.55;;;5.30;;
66597;SDS011;57424;53.128;6.406;2022-11-12T12:00:19;8.77;;;5.25;;
66597;SDS011;57424;53.128;6.406;2022-11-12T12:05:43;6.60;;;5.00;;
66597;SDS011;57424;53.128;6.406;2022-11-12T12:13:16;6.28;;;4.95;;
66597;SDS011;57424;53.128;6.406;2022-11-12T12:16:08;6.63;;;5.18;;
66597;SDS011;57424;53.128;6.406;2022-11-12T12:18:41;6.75;;;5.32;;
66597;SDS011;57424;53.128;6.406;2022-11-12T12:23:43;7.15;;;5.25;;
66597;SDS011;57424;53.128;6.406;2022-11-12T12:26:13;7.30;;;5.38;;
66597;SDS011;57424;53.128;6.406;2022-11-12T12:28:45;7.72;;;5.18;;
66597;SDS011;57424;53.128;6.406;2022-11-12T12:31:16;7.63;;;5.60;;
66597;SDS011;57424;53.128;6.406;2022-11-12T12:36:14;7.28;;;5.22;;
66597;SDS011;57424;53.128;6.406;2022-11-12T12:38:47;6.45;;;5.70;;
66597;SDS011;57424;53.128;6.406;2022-11-12T12:41:17;6.22;;;5.30;;
66597;SDS011;57424;53.128;6.406;2022-11-12T12:43:52;7.07;;;5.75;;
66597;SDS011;57424;53.128;6.406;2022-11-12T12:46:21;7.45;;;5.60;;
66597;SDS011;57424;53.128;6.406;2022-11-12T12:48:49;7.32;;;5.75;;
66597;SDS011;57424;53.128;6.406;2022-11-12T12:51:18;7.15;;;5.35;;
66597;SDS011;57424;53.128;6.406;2022-11-12T12:53:45;7.60;;;5.17;;
66597;SDS011;57424;53.128;6.406;2022-11-12T13:08:50;6.65;;;5.68;;
66597;SDS011;57424;53.128;6.406;2022-11-12T13:16:57;6.32;;;5.60;;
66597;SDS011;57424;53.128;6.406;2022-11-12T13:19:25;6.93;;;5.95;;
66597;SDS011;57424;53.128;6.406;2022-11-12T13:32:53;6.68;;;5.75;;
66597;SDS011;57424;53.128;6.406;2022-11-12T13:42:49;7.10;;;5.63;;
66597;SDS011;57424;53.128;6.406;2022-11-12T13:45:20;7.60;;;5.95;;
66597;SDS011;57424;53.128;6.406;2022-11-12T13:47:48;6.45;;;5.63;;
66597;SDS011;57424;53.128;6.406;2022-11-12T13:50:15;6.90;;;6.20;;
66597;SDS011;57424;53.128;6.406;2022-11-12T13:52:44;7.43;;;5.53;;
66597;SDS011;57424;53.128;6.406;2022-11-12T13:55:12;6.63;;;5.90;;
66597;SDS011;57424;53.128;6.406;2022-11-12T13:57:40;8.10;;;5.78;;
66597;SDS011;57424;53.128;6.406;2022-11-12T14:00:06;6.22;;;5.50;;
66597;SDS011;57424;53.128;6.406;2022-11-12T14:02:54;6.53;;;5.72;;
66597;SDS011;57424;53.128;6.406;2022-11-12T14:05:21;8.85;;;6.45;;
66597;SDS011;57424;53.128;6.406;2022-11-12T14:07:56;7.45;;;6.13;;
66597;SDS011;57424;53.128;6.406;2022-11-12T14:16:13;7.10;;;6.05;;
66597;SDS011;57424;53.128;6.406;2022-11-12T14:19:03;6.57;;;5.70;;
66597;SDS011;57424;53.128;6.406;2022-11-12T14:21:32;6.93;;;5.88;;
66597;SDS011;57424;53.128;6.406;2022-11-12T14:24:00;7.00;;;5.60;;
66597;SDS011;57424;53.128;6.406;2022-11-12T14:26:33;6.40;;;5.57;;
66597;SDS011;57424;53.128;6.406;2022-11-12T14:29:01;6.53;;;5.53;;
66597;SDS011;57424;53.128;6.406;2022-11-12T14:31:26;6.47;;;5.57;;
66597;SDS011;57424;53.128;6.406;2022-11-12T14:33:52;6.22;;;5.57;;
66597;SDS011;57424;53.128;6.406;2022-11-12T14:36:17;7.57;;;6.53;;
66597;SDS011;57424;53.128;6.406;2022-11-12T14:38:48;7.15;;;5.97;;
66597;SDS011;57424;53.128;6.406;2022-11-12T14:41:24;7.70;;;6.13;;
66597;SDS011;57424;53.128;6.406;2022-11-12T14:43:55;7.13;;;5.93;;
66597;SDS011;57424;53.128;6.406;2022-11-12T14:48:57;8.05;;;6.00;;
66597;SDS011;57424;53.128;6.406;2022-11-12T14:51:28;7.05;;;5.68;;
66597;SDS011;57424;53.128;6.406;2022-11-12T14:56:36;6.80;;;6.10;;
66597;SDS011;57424;53.128;6.406;2022-11-12T14:59:08;6.93;;;6.22;;
66597;SDS011;57424;53.128;6.406;2022-11-12T15:01:37;6.43;;;5.55;;
66597;SDS011;57424;53.128;6.406;2022-11-12T15:06:35;6.28;;;5.63;;
66597;SDS011;57424;53.128;6.406;2022-11-12T15:09:02;6.95;;;6.25;;
66597;SDS011;57424;53.128;6.406;2022-11-12T15:11:29;7.30;;;5.90;;
66597;SDS011;57424;53.128;6.406;2022-11-12T15:13:59;6.55;;;5.72;;
66597;SDS011;57424;53.128;6.406;2022-11-12T15:16:33;6.80;;;6.10;;
66597;SDS011;57424;53.128;6.406;2022-11-12T15:19:05;7.35;;;6.18;;
66597;SDS011;57424;53.128;6.406;2022-11-12T15:21:32;8.52;;;6.00;;
66597;SDS011;57424;53.128;6.406;2022-11-12T15:26:39;7.05;;;6.18;;
66597;SDS011;57424;53.128;6.406;2022-11-12T15:31:43;6.82;;;6.05;;
66597;SDS011;57424;53.128;6.406;2022-11-12T15:36:57;7.20;;;6.38;;
66597;SDS011;57424;53.128;6.406;2022-11-12T15:39:24;7.53;;;6.18;;
66597;SDS011;57424;53.128;6.406;2022-11-12T15:41:55;6.43;;;5.78;;
66597;SDS011;57424;53.128;6.406;2022-11-12T15:44:22;6.85;;;5.72;;
66597;SDS011;57424;53.128;6.406;2022-11-12T15:46:50;6.10;;;5.20;;
66597;SDS011;57424;53.128;6.406;2022-11-12T15:49:17;6.40;;;5.60;;
66597;SDS011;57424;53.128;6.406;2022-11-12T15:51:44;6.70;;;5.93;;
66597;SDS011;57424;53.128;6.406;2022-11-12T15:54:11;7.32;;;6.05;;
66597;SDS011;57424;53.128;6.406;2022-11-12T15:56:39;7.10;;;6.20;;
66597;SDS011;57424;53.128;6.406;2022-11-12T15:59:10;8.18;;;6.53;;
66597;SDS011;57424;53.128;6.406;2022-11-12T16:01:42;7.22;;;6.43;;
66597;SDS011;57424;53.128;6.406;2022-11-12T16:04:11;7.00;;;5.75;;
66597;SDS011;57424;53.128;6.406;2022-11-12T16:06:39;6.70;;;6.00;;
66597;SDS011;57424;53.128;6.406;2022-11-12T16:09:05;6.90;;;6.20;;
66597;SDS011;57424;53.128;6.406;2022-11-12T16:11:31;7.47;;;5.78;;
66597;SDS011;57424;53.128;6.406;2022-11-12T16:13:59;6.82;;;6.05;;
66597;SDS011;57424;53.128;6.406;2022-11-12T16:16:26;6.78;;;6.03;;
66597;SDS011;57424;53.128;6.406;2022-11-12T16:18:53;6.53;;;5.70;;
66597;SDS011;57424;53.128;6.406;2022-11-12T16:21:19;7.72;;;6.35;;
66597;SDS011;57424;53.128;6.406;2022-11-12T16:23:45;6.75;;;5.93;;
66597;SDS011;57424;53.128;6.406;2022-11-12T16:26:11;8.35;;;6.57;;
66597;SDS011;57424;53.128;6.406;2022-11-12T16:28:40;7.53;;;6.30;;
66597;SDS011;57424;53.128;6.406;2022-11-12T16:31:05;6.25;;;5.60;;
66597;SDS011;57424;53.128;6.406;2022-11-12T16:33:31;7.07;;;6.38;;
66597;SDS011;57424;53.128;6.406;2022-11-12T16:35:56;7.68;;;6.55;;
66597;SDS011;57424;53.128;6.406;2022-11-12T16:38:22;7.00;;;6.25;;
66597;SDS011;57424;53.128;6.406;2022-11-12T16:40:49;7.00;;;6.28;;
66597;SDS011;57424;53.128;6.406;2022-11-12T16:43:15;6.40;;;5.65;;
66597;SDS011;57424;53.128;6.406;2022-11-12T16:45:41;6.85;;;6.00;;
66597;SDS011;57424;53.128;6.406;2022-11-12T16:48:12;7.53;;;6.50;;
66597;SDS011;57424;53.128;6.406;2022-11-12T16:50:45;7.17;;;6.00;;
66597;SDS011;57424;53.128;6.406;2022-11-12T16:53:11;7.50;;;6.47;;